Погода Сан-Карлусна неделю

Сан-Паулу, Бразилия

12 - 18 июня
  • 12июня
    Сегодня
    +16°
    +28°
    Ясно и безоблачно
    ВремяПогодаТемператураВлажностьДавлениеВетер, м/сВероятность осадков
    00:00Ясно и безоблачно+17°C50 %699 мм2.9 м/с5 %
    03:00Ясно и безоблачно+18°C55 %699 мм3.1 м/с5 %
    06:00Ясно и безоблачно+16°C59 %699 мм3.1 м/с5 %
    09:00Ясно и безоблачно+21°C49 %701 мм2.0 м/с5 %
    12:00Ясно и безоблачно+26°C31 %701 мм4.0 м/с5 %
    15:00Ясно и безоблачно+27°C24 %700 мм2.4 м/с5 %
    18:00Ясно и безоблачно+21°C36 %698 мм2.0 м/с5 %
    21:00Ясно и безоблачно+18°C43 %699 мм1.0 м/с5 %
  • 13июня
    Четверг
    +15°
    +28°
    Ясно и безоблачно
    ВремяПогодаТемператураВлажностьДавлениеВетер, м/сВероятность осадков
    00:00Ясно и безоблачно+17°C53 %699 мм2.8 м/с5 %
    03:00Ясно и безоблачно+16°C55 %698 мм2.6 м/с5 %
    06:00Ясно и безоблачно+16°C56 %698 мм3.2 м/с5 %
    09:00Ясно и безоблачно+21°C47 %700 мм2.2 м/с5 %
    12:00Ясно и безоблачно+26°C29 %700 мм4.6 м/с5 %
    15:00Ясно и безоблачно+27°C24 %699 мм4.0 м/с5 %
    18:00Ясно и безоблачно+21°C36 %697 мм2.3 м/с5 %
    21:00Ясно и безоблачно+18°C49 %698 мм1.2 м/с5 %
  • 14июня
    Пятница
    +17°
    +28°
    Ясно и безоблачно
    ВремяПогодаТемператураВлажностьДавлениеВетер, м/сВероятность осадков
    00:00Ясно и безоблачно+16°C54 %698 мм3.1 м/с5 %
    03:00Ясно и безоблачно+16°C51 %698 мм3.6 м/с5 %
    06:00Ясно и безоблачно+16°C53 %698 мм3.5 м/с5 %
    09:00Ясно и безоблачно+21°C46 %700 мм2.8 м/с5 %
    12:00Ясно и безоблачно+27°C31 %700 мм6.3 м/с5 %
    15:00Ясно и безоблачно+27°C28 %698 мм4.6 м/с5 %
    18:00Ясно и безоблачно+22°C40 %698 мм2.8 м/с5 %
    21:00Ясно и безоблачно+19°C52 %698 мм1.3 м/с5 %
  • 15июня
    Суббота
    +15°
    +27°
    Ясно и безоблачно
    ВремяПогодаТемператураВлажностьДавлениеВетер, м/сВероятность осадков
    00:00Ясно и безоблачно+18°C66 %699 мм2.9 м/с5 %
    03:00Ясно и безоблачно+17°C68 %699 мм2.5 м/с5 %
    06:00Ясно и безоблачно+17°C68 %699 мм4.0 м/с5 %
    09:00Ясно и безоблачно+22°C55 %701 мм2.7 м/с5 %
    12:00Ясно и безоблачно+26°C36 %701 мм4.5 м/с5 %
    15:00Ясно и безоблачно+26°C30 %699 мм3.1 м/с5 %
    18:00Ясно и безоблачно+20°C40 %698 мм2.1 м/с5 %
    21:00Ясно и безоблачно+20°C39 %699 мм0.3 м/с5 %
  • 16июня
    Воскресенье
    +15°
    +28°
    Ясно и безоблачно
    ВремяПогодаТемператураВлажностьДавлениеВетер, м/сВероятность осадков
    00:00Ясно и безоблачно+15°C59 %698 мм2.2 м/с5 %
    03:00Ясно и безоблачно+16°C72 %698 мм2.4 м/с5 %
    06:00Ясно и безоблачно+16°C70 %698 мм2.7 м/с5 %
    09:00Ясно и безоблачно+22°C49 %700 мм2.3 м/с5 %
    12:00Практически безоблачно+27°C33 %700 мм3.1 м/с5 %
    15:00Ясно и безоблачно+27°C31 %698 мм2.8 м/с5 %
    18:00Ясно и безоблачно+23°C40 %697 мм2.1 м/с5 %
    21:00Ясно и безоблачно+20°C48 %697 мм0.7 м/с5 %
Мы используем cookies
Соглашаюсь